createdAt,value
2018-02-08T00:02:03.061Z,95229.46
2018-02-08T00:04:32.111Z,95233.27
2018-02-08T00:07:01.165Z,95231.38
2018-02-08T00:09:32.122Z,95227.31
2018-02-08T00:12:01.565Z,95229.32
2018-02-08T00:14:30.643Z,95226.41
2018-02-08T00:19:35.085Z,95229.37
2018-02-08T00:22:04.098Z,95231.16
2018-02-08T00:24:34.098Z,95231.65
2018-02-08T00:29:41.049Z,95231.13
2018-02-08T00:32:10.090Z,95232.23
2018-02-08T00:34:39.197Z,95232.14
2018-02-08T00:37:08.266Z,95231.90
2018-02-08T00:39:37.320Z,95233.73
2018-02-08T00:42:06.369Z,95231.23
2018-02-08T00:44:37.329Z,95230.25
2018-02-08T00:47:06.387Z,95237.09
2018-02-08T00:49:35.450Z,95230.81
2018-02-08T00:52:04.493Z,95235.20
2018-02-08T00:54:33.585Z,95238.63
2018-02-08T00:57:02.630Z,95233.58
2018-02-08T00:59:31.685Z,95239.78
2018-02-08T01:02:00.725Z,95243.54
2018-02-08T01:04:29.798Z,95241.25
2018-02-08T01:06:58.914Z,95247.14
2018-02-08T01:09:27.932Z,95245.67
2018-02-08T01:11:56.989Z,95246.64
2018-02-08T01:14:26.963Z,95248.52
2018-02-08T01:16:56.013Z,95250.75
2018-02-08T01:19:25.950Z,95254.44
2018-02-08T01:21:54.997Z,95256.10
2018-02-08T01:24:27.945Z,95254.30
2018-02-08T01:26:57.009Z,95252.55
2018-02-08T01:29:26.054Z,95254.83
2018-02-08T01:31:55.105Z,95250.70
2018-02-08T01:34:24.161Z,95251.69
2018-02-08T01:36:53.217Z,95254.71
2018-02-08T01:39:22.277Z,95258.75
2018-02-08T01:41:51.334Z,95253.89
2018-02-08T01:44:20.425Z,95257.81
2018-02-08T01:46:49.462Z,95262.10
2018-02-08T01:49:24.538Z,95259.47
2018-02-08T01:51:53.594Z,95256.38
2018-02-08T01:54:23.212Z,95254.08
2018-02-08T01:56:52.262Z,95252.05
2018-02-08T01:59:21.305Z,95255.77
2018-02-08T02:01:50.413Z,95259.45
2018-02-08T02:06:55.653Z,95263.66
2018-02-08T02:09:24.701Z,95263.05
2018-02-08T02:11:53.833Z,95260.64
2018-02-08T02:16:59.146Z,95263.10
2018-02-08T02:19:28.181Z,95265.01
2018-02-08T02:21:57.238Z,95265.36
2018-02-08T02:24:26.293Z,95264.38
2018-02-08T02:26:55.367Z,95263.42
2018-02-08T02:29:24.405Z,95261.11
2018-02-08T02:31:53.458Z,95266.13
2018-02-08T02:34:22.512Z,95258.77
2018-02-08T02:36:51.657Z,95261.12
2018-02-08T02:39:20.698Z,95264.38
2018-02-08T02:41:50.641Z,95262.06
2018-02-08T02:44:19.697Z,95260.83
2018-02-08T02:46:48.753Z,95264.17
2018-02-08T02:49:17.803Z,95263.94
2018-02-08T02:51:46.887Z,95266.02
2018-02-08T02:54:15.945Z,95265.23
2018-02-08T02:56:44.991Z,95264.53
2018-02-08T02:59:14.045Z,95262.70
2018-02-08T03:01:43.102Z,95262.92
2018-02-08T03:04:12.191Z,95268.61
2018-02-08T03:06:41.221Z,95269.39
2018-02-08T03:09:10.284Z,95261.70
2018-02-08T03:11:39.454Z,95261.39
2018-02-08T03:14:08.531Z,95268.84
2018-02-08T03:16:37.561Z,95267.58
2018-02-08T03:19:06.686Z,95272.51
2018-02-08T03:21:35.705Z,95274.47
2018-02-08T03:24:05.655Z,95272.52
2018-02-08T03:26:34.720Z,95272.56
2018-02-08T03:29:03.764Z,95277.52
2018-02-08T03:31:32.817Z,95280.26
2018-02-08T03:34:01.869Z,95279.95
2018-02-08T03:36:30.921Z,95285.14
2018-02-08T03:38:59.977Z,95279.33
2018-02-08T03:41:30.026Z,95285.36
2018-02-08T03:43:59.976Z,95286.07
2018-02-08T03:46:29.049Z,95290.31
2018-02-08T03:48:58.142Z,95285.88
2018-02-08T03:51:28.159Z,95285.68
2018-02-08T03:53:57.221Z,95289.36
2018-02-08T03:56:26.270Z,95289.88
2018-02-08T03:58:55.314Z,95291.24
2018-02-08T04:01:24.385Z,95292.00
2018-02-08T04:03:53.436Z,95296.17
2018-02-08T04:06:22.533Z,95296.23
2018-02-08T04:08:51.546Z,95300.78
2018-02-08T04:11:20.612Z,95308.77
2018-02-08T04:13:49.653Z,95308.47
2018-02-08T04:16:18.708Z,95311.63
2018-02-08T04:18:47.770Z,95311.06
2018-02-08T04:21:17.766Z,95313.70
2018-02-08T04:23:46.940Z,95315.19
2018-02-08T04:26:15.997Z,95319.30
2018-02-08T04:28:45.046Z,95320.49
2018-02-08T04:31:14.150Z,95319.78
2018-02-08T04:33:43.208Z,95324.67
2018-02-08T04:36:12.277Z,95319.52
2018-02-08T04:39:00.090Z,95317.48
2018-02-08T04:41:47.060Z,95319.55
2018-02-08T04:47:07.975Z,95326.85
2018-02-08T04:49:37.037Z,95331.56
2018-02-08T04:52:06.085Z,95331.44
2018-02-08T04:54:35.149Z,95336.58
2018-02-08T04:57:04.188Z,95335.94
2018-02-08T04:59:33.275Z,95339.03
2018-02-08T05:02:02.416Z,95335.39
2018-02-08T05:04:37.437Z,95338.77
2018-02-08T05:07:06.481Z,95341.36
2018-02-08T05:09:35.640Z,95345.34
2018-02-08T05:12:04.710Z,95346.09
2018-02-08T05:14:34.773Z,95347.56
2018-02-08T05:17:04.543Z,95344.06
2018-02-08T05:19:33.598Z,95348.73
2018-02-08T05:22:02.693Z,95348.10
2018-02-08T05:24:31.750Z,95349.25
2018-02-08T05:27:00.805Z,95350.41
2018-02-08T05:29:29.862Z,95356.03
2018-02-08T05:31:58.969Z,95354.28
2018-02-08T05:34:28.066Z,95361.80
2018-02-08T05:39:32.378Z,95361.41
2018-02-08T05:42:05.009Z,95362.23
2018-02-08T05:44:37.426Z,95364.77
2018-02-08T05:47:06.473Z,95364.98
2018-02-08T05:49:35.517Z,95365.91
2018-02-08T05:52:04.589Z,95367.02
2018-02-08T05:54:34.478Z,95370.97
2018-02-08T05:57:03.568Z,95380.48
2018-02-08T05:59:32.612Z,95377.59
2018-02-08T06:02:07.483Z,95379.92
2018-02-08T06:04:37.816Z,95384.84
2018-02-08T06:07:06.909Z,95383.11
2018-02-08T06:09:35.980Z,95377.72
2018-02-08T06:12:05.014Z,95381.34
2018-02-08T06:14:34.081Z,95383.78
2018-02-08T06:17:03.171Z,95392.42
2018-02-08T06:19:32.284Z,95393.85
2018-02-08T06:22:02.261Z,95397.46
2018-02-08T06:24:31.498Z,95395.22
2018-02-08T06:27:00.642Z,95399.95
2018-02-08T06:29:32.978Z,95402.94
2018-02-08T06:32:02.014Z,95405.53
2018-02-08T06:34:31.077Z,95412.23
2018-02-08T06:37:00.153Z,95415.59
2018-02-08T06:39:29.209Z,95415.69
2018-02-08T06:41:58.284Z,95418.73
2018-02-08T06:44:28.204Z,95418.63
2018-02-08T06:46:57.252Z,95418.21
2018-02-08T06:49:26.321Z,95420.44
2018-02-08T06:51:55.365Z,95425.58
2018-02-08T06:56:59.663Z,95430.55
2018-02-08T06:59:28.693Z,95430.77
2018-02-08T07:01:57.733Z,95438.52
2018-02-08T07:04:26.797Z,95445.33
2018-02-08T07:06:55.846Z,95447.66
2018-02-08T07:09:24.902Z,95449.83
2018-02-08T07:11:54.979Z,95451.00
2018-02-08T07:14:24.033Z,95452.48
2018-02-08T07:16:53.114Z,95453.44
2018-02-08T07:22:24.905Z,95460.20
2018-02-08T07:24:53.949Z,95463.34
2018-02-08T07:27:23.013Z,95465.45
2018-02-08T07:29:52.110Z,95467.27
2018-02-08T07:32:21.161Z,95469.23
2018-02-08T07:34:50.330Z,95477.98
2018-02-08T07:37:19.365Z,95473.58
2018-02-08T07:39:48.421Z,95472.63
2018-02-08T07:42:17.474Z,95475.27
2018-02-08T07:44:46.527Z,95473.89
2018-02-08T07:47:15.589Z,95476.70
2018-02-08T07:49:44.653Z,95479.92
2018-02-08T07:52:13.747Z,95480.48
2018-02-08T07:54:42.809Z,95479.73
2018-02-08T07:57:11.863Z,95484.98
2018-02-08T07:59:40.910Z,95485.67
2018-02-08T08:02:09.969Z,95489.25
2018-02-08T08:04:39.010Z,95491.61
2018-02-08T08:07:08.068Z,95488.70
2018-02-08T08:09:37.132Z,95491.41
2018-02-08T08:12:06.171Z,95494.26
2018-02-08T08:14:35.237Z,95489.94
2018-02-08T08:17:04.293Z,95492.55
2018-02-08T08:19:33.341Z,95493.64
2018-02-08T08:22:02.395Z,95493.74
2018-02-08T08:28:20.900Z,95494.75
2018-02-08T08:30:49.973Z,95496.89
2018-02-08T08:33:19.025Z,95499.98
2018-02-08T08:35:48.069Z,95497.08
2018-02-08T08:38:17.118Z,95498.98
2018-02-08T08:40:46.170Z,95504.35
2018-02-08T08:43:15.213Z,95506.70
2018-02-08T08:45:44.250Z,95506.30
2018-02-08T08:48:17.039Z,95508.27
2018-02-08T08:50:49.694Z,95512.84
2018-02-08T08:53:18.710Z,95517.16
2018-02-08T08:55:47.774Z,95518.39
2018-02-08T08:58:16.859Z,95520.94
2018-02-08T09:00:45.873Z,95519.91
2018-02-08T09:03:14.944Z,95523.17
2018-02-08T09:05:50.225Z,95524.98
2018-02-08T09:08:19.477Z,95527.94
2018-02-08T09:10:48.516Z,95524.05
2018-02-08T09:13:17.565Z,95524.69
2018-02-08T09:15:46.651Z,95522.95
2018-02-08T09:18:15.691Z,95521.66
2018-02-08T09:20:44.759Z,95517.63
2018-02-08T09:23:13.857Z,95520.06
2018-02-08T09:28:18.117Z,95522.33
2018-02-08T09:30:47.595Z,95523.12
2018-02-08T09:33:16.882Z,95522.61
2018-02-08T09:35:45.972Z,95521.73
2018-02-08T09:38:15.072Z,95523.86
2018-02-08T09:40:44.066Z,95526.55
2018-02-08T09:43:13.115Z,95525.58
2018-02-08T09:45:42.192Z,95528.16
2018-02-08T09:48:11.200Z,95525.78
2018-02-08T09:50:40.249Z,95527.30
2018-02-08T09:53:09.313Z,95529.09
2018-02-08T09:55:38.353Z,95527.02
2018-02-08T09:58:08.317Z,95529.16
2018-02-08T10:00:37.369Z,95522.80
2018-02-08T10:03:06.414Z,95530.38
2018-02-08T10:05:35.464Z,95532.27
2018-02-08T10:08:04.514Z,95540.38
2018-02-08T10:10:33.557Z,95530.97
2018-02-08T10:13:09.220Z,95534.81
2018-02-08T10:15:39.163Z,95540.29
2018-02-08T10:18:08.197Z,95540.63
2018-02-08T10:20:37.238Z,95539.64
2018-02-08T10:23:06.295Z,95537.23
2018-02-08T10:25:35.329Z,95541.75
2018-02-08T10:28:04.378Z,95534.28
2018-02-08T10:30:33.430Z,95547.20
2018-02-08T10:33:02.458Z,95540.87
2018-02-08T10:35:31.508Z,95545.97
2018-02-08T10:38:00.721Z,95551.33
2018-02-08T10:40:30.386Z,95551.44
2018-02-08T10:42:59.455Z,95546.23
2018-02-08T10:45:29.622Z,95541.55
2018-02-08T10:47:58.666Z,95540.97
2018-02-08T10:50:29.433Z,95542.41
2018-02-08T10:52:58.490Z,95536.94
2018-02-08T10:58:02.570Z,95536.78
2018-02-08T11:00:31.624Z,95533.80
2018-02-08T11:05:43.034Z,95519.37
2018-02-08T11:08:12.421Z,95524.48
2018-02-08T11:10:41.495Z,95523.38
2018-02-08T11:13:10.519Z,95527.02
2018-02-08T11:18:14.740Z,95522.34
2018-02-08T11:20:43.784Z,95526.33
2018-02-08T11:23:12.832Z,95529.06
2018-02-08T11:25:41.865Z,95522.92
2018-02-08T11:28:10.906Z,95519.26
2018-02-08T11:30:39.945Z,95515.05
2018-02-08T11:35:46.182Z,95515.78
2018-02-08T11:38:15.593Z,95519.39
2018-02-08T11:40:44.636Z,95516.27
2018-02-08T11:43:13.685Z,95520.41
2018-02-08T11:45:42.717Z,95518.41
2018-02-08T11:48:11.783Z,95525.89
2018-02-08T11:50:40.822Z,95526.71
2018-02-08T11:53:09.853Z,95522.72
2018-02-08T11:55:38.894Z,95521.34
2018-02-08T11:58:07.934Z,95522.78
2018-02-08T12:00:36.977Z,95525.36
2018-02-08T12:03:07.048Z,95525.89
2018-02-08T12:08:11.263Z,95520.71
2018-02-08T12:10:40.294Z,95523.30
2018-02-08T12:13:09.344Z,95518.81
2018-02-08T12:15:38.383Z,95523.30
2018-02-08T12:18:07.465Z,95527.42
2018-02-08T12:20:36.497Z,95524.23
2018-02-08T12:23:05.542Z,95524.66
2018-02-08T12:25:34.589Z,95527.95
2018-02-08T12:28:03.628Z,95521.11
2018-02-08T12:30:32.671Z,95525.34
2018-02-08T12:35:36.898Z,95518.98
2018-02-08T12:38:05.952Z,95516.81
2018-02-08T12:40:34.985Z,95519.27
2018-02-08T12:43:04.034Z,95513.45
2018-02-08T12:45:34.075Z,95514.11
2018-02-08T12:48:03.114Z,95515.88
2018-02-08T12:53:08.333Z,95507.89
2018-02-08T12:55:37.381Z,95508.50
2018-02-08T12:58:06.436Z,95506.48
2018-02-08T13:00:35.514Z,95502.45
2018-02-08T13:03:04.524Z,95502.77
2018-02-08T13:05:33.571Z,95499.58
2018-02-08T13:08:02.605Z,95497.84
2018-02-08T13:10:31.669Z,95496.38
2018-02-08T13:15:36.410Z,95502.78
2018-02-08T13:18:05.446Z,95495.16
2018-02-08T13:20:34.487Z,95498.19
2018-02-08T13:23:03.610Z,95495.81
2018-02-08T13:25:32.622Z,95491.52
2018-02-08T13:28:01.658Z,95490.70
2018-02-08T13:30:30.725Z,95491.06
2018-02-08T13:33:00.386Z,95485.31
2018-02-08T13:35:29.417Z,95486.11
2018-02-08T13:43:09.906Z,95491.09
2018-02-08T13:45:38.955Z,95489.83
2018-02-08T13:48:10.922Z,95491.47
2018-02-08T13:53:26.225Z,95492.84
2018-02-08T13:58:42.063Z,95500.73
2018-02-08T14:04:09.873Z,95504.69
2018-02-08T14:06:38.910Z,95510.44
2018-02-08T14:09:07.958Z,95515.77
2018-02-08T14:11:37.010Z,95512.91
2018-02-08T14:14:06.051Z,95510.16
2018-02-08T14:19:10.380Z,95512.70
2018-02-08T14:21:39.408Z,95512.49
2018-02-08T14:24:08.454Z,95508.66
2018-02-08T14:26:37.475Z,95506.47
2018-02-08T14:29:06.508Z,95509.17
2018-02-08T14:31:35.560Z,95511.98
2018-02-08T14:34:04.606Z,95511.54
2018-02-08T14:36:34.057Z,95509.53
2018-02-08T14:39:03.094Z,95507.70
2018-02-08T14:41:32.137Z,95507.97
2018-02-08T14:44:06.969Z,95507.66
2018-02-08T14:46:37.398Z,95509.83
2018-02-08T14:49:06.499Z,95506.22
2018-02-08T14:54:13.998Z,95514.52
2018-02-08T14:59:24.534Z,95515.74
2018-02-08T15:01:54.518Z,95516.15
2018-02-08T15:04:23.570Z,95516.88
2018-02-08T15:06:52.615Z,95512.44
2018-02-08T15:11:58.291Z,95515.17
2018-02-08T15:14:27.299Z,95517.09
2018-02-08T15:16:57.539Z,95515.48
2018-02-08T15:19:26.573Z,95511.78
2018-02-08T15:21:55.787Z,95511.56
2018-02-08T15:24:24.802Z,95510.75
2018-02-08T15:26:53.845Z,95511.68
2018-02-08T15:29:22.897Z,95513.84
2018-02-08T15:31:51.945Z,95513.89
2018-02-08T15:34:20.993Z,95516.97
2018-02-08T15:36:50.035Z,95522.58
2018-02-08T15:39:19.103Z,95522.28
2018-02-08T15:41:48.189Z,95522.11
2018-02-08T15:44:17.243Z,95522.64
2018-02-08T15:46:46.273Z,95525.38
2018-02-08T15:49:15.315Z,95526.15
2018-02-08T15:51:44.346Z,95530.44
2018-02-08T15:54:15.610Z,95532.96
2018-02-08T15:56:46.149Z,95535.80
2018-02-08T15:59:19.786Z,95530.39
2018-02-08T16:01:56.399Z,95530.97
2018-02-08T16:04:25.427Z,95533.55
2018-02-08T16:09:32.709Z,95540.23
2018-02-08T16:12:01.745Z,95538.91
2018-02-08T16:14:30.843Z,95539.15
2018-02-08T16:17:00.944Z,95540.93
2018-02-08T16:19:30.170Z,95536.14
2018-02-08T16:21:59.226Z,95536.75
2018-02-08T16:24:29.466Z,95538.38
2018-02-08T16:26:58.532Z,95542.03
2018-02-08T16:29:28.629Z,95545.48
2018-02-08T16:31:58.271Z,95545.42
2018-02-08T16:37:02.615Z,95549.64
2018-02-08T16:39:31.673Z,95543.73
2018-02-08T16:42:00.766Z,95551.61
2018-02-08T16:44:30.090Z,95548.88
2018-02-08T16:46:59.135Z,95550.36
2018-02-08T16:49:29.149Z,95555.15
2018-02-08T16:51:58.257Z,95556.14
2018-02-08T16:54:28.174Z,95558.09
2018-02-08T16:56:57.221Z,95566.67
2018-02-08T16:59:27.445Z,95565.03
2018-02-08T17:01:57.496Z,95568.77
2018-02-08T17:04:27.680Z,95567.84
2018-02-08T17:06:56.753Z,95564.41
2018-02-08T17:09:26.005Z,95565.31
2018-02-08T17:11:55.053Z,95573.82
2018-02-08T17:14:24.120Z,95569.09
2018-02-08T17:16:53.162Z,95573.98
2018-02-08T17:19:22.210Z,95574.73
2018-02-08T17:21:59.671Z,95576.23
2018-02-08T17:24:29.582Z,95578.31
2018-02-08T17:26:58.645Z,95575.04
2018-02-08T17:29:28.533Z,95576.89
2018-02-08T17:31:57.681Z,95575.36
2018-02-08T17:34:27.647Z,95575.19
2018-02-08T17:36:56.702Z,95580.23
2018-02-08T17:39:25.978Z,95578.58
2018-02-08T17:41:55.134Z,95580.97
2018-02-08T17:44:24.172Z,95579.93
2018-02-08T17:46:53.249Z,95576.76
2018-02-08T17:49:22.324Z,95577.20
2018-02-08T17:51:51.382Z,95574.12
2018-02-08T17:54:23.593Z,95579.14
2018-02-08T17:59:27.870Z,95581.39
2018-02-08T18:01:56.931Z,95574.36
2018-02-08T18:06:14.364Z,95576.31
2018-02-08T18:08:43.419Z,95580.92
2018-02-08T18:11:13.425Z,95584.05
2018-02-08T18:16:17.979Z,95579.61
2018-02-08T18:18:47.048Z,95586.81
2018-02-08T18:21:16.130Z,95587.85
2018-02-08T18:23:45.203Z,95586.58
2018-02-08T18:26:14.221Z,95586.78
2018-02-08T18:28:43.270Z,95591.35
2018-02-08T18:31:12.347Z,95589.99
2018-02-08T18:36:16.638Z,95587.87
2018-02-08T18:38:45.692Z,95594.59
2018-02-08T18:41:14.796Z,95595.02
2018-02-08T18:43:43.846Z,95598.73
2018-02-08T18:46:12.955Z,95600.08
2018-02-08T18:48:41.986Z,95600.59
2018-02-08T18:51:11.098Z,95608.34
2018-02-08T18:53:40.913Z,95603.52
2018-02-08T18:56:09.961Z,95607.61
2018-02-08T18:58:39.005Z,95608.41
2018-02-08T19:01:08.099Z,95613.10
2018-02-08T19:03:37.203Z,95610.65
2018-02-08T19:06:06.243Z,95606.70
2018-02-08T19:08:35.302Z,95606.84
2018-02-08T19:11:04.350Z,95607.09
2018-02-08T19:13:33.405Z,95607.77
2018-02-08T19:16:02.441Z,95609.97
2018-02-08T19:18:31.499Z,95611.02
2018-02-08T19:21:02.187Z,95614.44
2018-02-08T19:23:31.445Z,95610.72
2018-02-08T19:26:00.498Z,95611.20
2018-02-08T19:28:29.565Z,95616.33
2018-02-08T19:30:58.648Z,95611.73
2018-02-08T19:33:27.697Z,95619.29
2018-02-08T19:35:56.801Z,95615.69
2018-02-08T19:38:25.849Z,95619.48
2018-02-08T19:40:54.900Z,95621.73
2018-02-08T19:43:24.150Z,95623.48
2018-02-08T19:45:53.642Z,95627.12
2018-02-08T19:48:22.712Z,95627.08
2018-02-08T19:50:51.777Z,95625.26
2018-02-08T19:53:20.820Z,95625.62
2018-02-08T19:55:50.110Z,95625.80
2018-02-08T19:58:19.137Z,95628.73
2018-02-08T20:00:48.196Z,95629.52
2018-02-08T20:03:17.305Z,95625.30
2018-02-08T20:05:46.384Z,95627.86
2018-02-08T20:08:15.436Z,95622.38
2018-02-08T20:10:44.482Z,95622.33
2018-02-08T20:13:13.549Z,95617.80
2018-02-08T20:15:42.593Z,95623.23
2018-02-08T20:18:11.661Z,95622.17
2018-02-08T20:20:40.927Z,95619.30
2018-02-08T20:23:10.052Z,95616.25
2018-02-08T20:25:42.013Z,95612.28
2018-02-08T20:28:11.064Z,95612.20
2018-02-08T20:30:40.210Z,95614.55
2018-02-08T20:33:09.221Z,95616.03
2018-02-08T20:35:38.280Z,95612.08
2018-02-08T20:38:07.321Z,95612.09
2018-02-08T20:40:36.381Z,95607.56
2018-02-08T20:43:11.042Z,95600.09
2018-02-08T20:45:40.119Z,95604.84
2018-02-08T20:50:44.427Z,95607.81
2018-02-08T20:53:13.608Z,95604.27
2018-02-08T20:55:42.679Z,95600.27
2018-02-08T20:58:11.730Z,95600.15
2018-02-08T21:00:40.811Z,95598.59
2018-02-08T21:03:09.843Z,95595.59
2018-02-08T21:05:38.898Z,95601.63
2018-02-08T21:08:07.945Z,95600.60
2018-02-08T21:10:37.062Z,95600.35
2018-02-08T21:13:06.107Z,95593.05
2018-02-08T21:15:35.169Z,95598.97
2018-02-08T21:18:04.222Z,95594.63
2018-02-08T21:20:33.270Z,95598.04
2018-02-08T21:23:02.316Z,95595.48
2018-02-08T21:25:31.361Z,95591.58
2018-02-08T21:28:00.452Z,95589.43
2018-02-08T21:30:29.501Z,95591.67
2018-02-08T21:32:58.546Z,95589.00
2018-02-08T21:35:27.601Z,95586.33
2018-02-08T21:37:56.650Z,95589.16
2018-02-08T21:40:25.700Z,95588.17
2018-02-08T21:42:54.745Z,95590.22
2018-02-08T21:45:23.805Z,95589.40
2018-02-08T21:47:55.910Z,95588.44
2018-02-08T21:50:24.964Z,95585.84
2018-02-08T21:52:54.949Z,95581.69
2018-02-08T21:55:23.981Z,95580.69
2018-02-08T21:57:53.030Z,95574.08
2018-02-08T22:00:22.091Z,95565.69
2018-02-08T22:02:51.283Z,95568.47
2018-02-08T22:05:20.371Z,95567.19
2018-02-08T22:07:49.456Z,95561.03
2018-02-08T22:10:18.518Z,95558.71
2018-02-08T22:12:47.570Z,95558.77
2018-02-08T22:15:16.608Z,95559.55
2018-02-08T22:17:45.673Z,95557.33
2018-02-08T22:20:14.717Z,95561.08
2018-02-08T22:22:44.749Z,95564.09
2018-02-08T22:25:13.798Z,95560.70
2018-02-08T22:27:42.837Z,95564.91
2018-02-08T22:30:11.883Z,95561.85
2018-02-08T22:32:40.937Z,95560.92
2018-02-08T22:35:09.996Z,95557.13
2018-02-08T22:37:39.231Z,95561.06
2018-02-08T22:40:08.284Z,95563.59
2018-02-08T22:42:37.369Z,95563.81
2018-02-08T22:45:06.393Z,95556.57
2018-02-08T22:47:35.442Z,95564.47
2018-02-08T22:50:04.478Z,95560.34
2018-02-08T22:52:33.530Z,95561.81
2018-02-08T22:55:02.586Z,95565.42
2018-02-08T22:57:31.637Z,95569.73
2018-02-08T23:00:00.685Z,95566.77
2018-02-08T23:02:29.786Z,95569.67
2018-02-08T23:04:58.831Z,95567.16
2018-02-08T23:07:27.924Z,95567.78
2018-02-08T23:09:56.970Z,95567.11
2018-02-08T23:12:26.022Z,95567.48
2018-02-08T23:14:55.101Z,95573.86
2018-02-08T23:17:24.170Z,95569.05
2018-02-08T23:19:53.219Z,95571.44
2018-02-08T23:22:22.284Z,95566.31
2018-02-08T23:24:51.633Z,95574.72
2018-02-08T23:27:20.676Z,95569.97
2018-02-08T23:29:49.733Z,95575.38
2018-02-08T23:32:18.775Z,95573.52
2018-02-08T23:34:47.852Z,95568.80
2018-02-08T23:37:16.864Z,95567.42
2018-02-08T23:39:45.910Z,95566.00
2018-02-08T23:42:14.969Z,95567.12
2018-02-08T23:44:44.032Z,95554.77
2018-02-08T23:47:13.107Z,95561.45
2018-02-08T23:49:42.142Z,95562.39
2018-02-08T23:52:11.180Z,95565.42
2018-02-08T23:54:40.225Z,95568.18
2018-02-08T23:57:09.268Z,95566.66
2018-02-08T23:59:45.279Z,95562.33
